Flugplatz Arnsberg-Menden

Für EDLA sind keine METAR/TAF Berichte vorhanden.
Es werden die Flugwettermeldungen vom Flugplatz Dortmund in 20 km Entfernung angezeigt.

Bericht für EDLW

vom 20.09. um 13:50 UTC

Wind 7 kt aus 60°

Sichtweite 10 km oder mehr

gute Sicht, keine Wolken < 5000 ft, keine CB, keine Wettererscheinungen (CAVOK)

Temperatur 23.0°C

Taupunkt 7.0°C

Luftfeuchtigkeit 36%

Luftdruck 1016 hPa

EDLW 201350Z 06007KT 030V110 CAVOK 23/07 Q1016

Prognose für EDLW

vom 20.09. um 11:00 UTC

Zwischen 12:00 UTC und 20:00 UTC

Wind 8 kt aus 40°

Sichtweite 10 km oder mehr

keine signifikanten Wettererscheinungen

keine Wolken


Zwischen 20:00 und 23:00 UTC übergehend zu

Wind 3 kt aus 70°

Sichtweite 10 km oder mehr

keine signifikanten Wettererscheinungen

keine Wolken


Am 21.09. zwischen 09:00 und 12:00 UTC übergehend zu

Wind 8 kt aus 50°

Sichtweite 10 km oder mehr

keine signifikanten Wettererscheinungen

keine Wolken

TAF EDLW 201100Z 2012/2112 04008KT CAVOK BECMG 2020/2023 07003KT BECMG 2109/2112 05008KT
Impressum